Time;durP1;ratioP1;P1;durP2;ratioP2;P2;SDS_P1;SDS_P2;PMS_P1;PMS_P2;Temp;Humidity;BMP_temperature;BMP_pressure;BME280_temperature;BME280_humidity;BME280_pressure;Samples;Min_cycle;Max_cycle;Signal;HPM_P1;HPM_P2
2022/12/24 00:00:57;;;;;;;6.33;5.93;;;19.10;71.10;;;;;;5011042;28;20536;-53
2022/12/24 00:03:26;;;;;;;6.53;6.03;;;19.10;71.20;;;;;;5011431;28;20877;-52
2022/12/24 00:05:52;;;;;;;5.80;5.60;;;19.10;71.10;;;;;;5011436;28;20788;-55
2022/12/24 00:08:20;;;;;;;5.93;5.63;;;19.10;71.10;;;;;;5011651;28;20554;-53
2022/12/24 00:10:50;;;;;;;6.00;5.70;;;19.10;71.30;;;;;;5011259;28;20460;-55
2022/12/24 00:13:17;;;;;;;5.40;5.30;;;19.10;71.50;;;;;;5011603;28;20470;-54
2022/12/24 00:15:43;;;;;;;5.30;5.10;;;19.10;71.50;;;;;;5011267;28;20533;-52
2022/12/24 00:18:10;;;;;;;5.50;5.30;;;19.10;71.50;;;;;;5011432;28;20805;-50
2022/12/24 00:20:38;;;;;;;5.17;4.97;;;19.10;71.50;;;;;;5010895;28;20450;-56
2022/12/24 00:23:05;;;;;;;5.33;5.03;;;19.10;71.60;;;;;;5009907;28;20492;-54
2022/12/24 00:25:32;;;;;;;5.00;4.90;;;19.10;71.50;;;;;;5011249;28;20446;-52
2022/12/24 00:27:59;;;;;;;7.37;5.57;;;19.10;71.60;;;;;;5011193;28;20921;-52
2022/12/24 00:30:25;;;;;;;5.50;5.30;;;19.10;71.60;;;;;;5010534;28;20540;-53
2022/12/24 00:32:52;;;;;;;6.10;5.40;;;19.10;71.80;;;;;;5011349;28;20841;-52
2022/12/24 00:35:19;;;;;;;6.00;5.60;;;19.10;71.90;;;;;;5011186;28;20457;-52
2022/12/24 00:37:48;;;;;;;6.00;5.80;;;19.10;71.90;;;;;;5010494;28;21037;-54
2022/12/24 00:40:16;;;;;;;5.73;5.53;;;19.10;72.10;;;;;;5010870;28;20450;-54
2022/12/24 00:42:42;;;;;;;4.83;4.63;;;19.00;71.90;;;;;;5010801;28;20466;-52
2022/12/24 00:45:11;;;;;;;5.87;5.67;;;19.10;72.00;;;;;;5011050;28;20541;-52
2022/12/24 00:47:38;;;;;;;6.60;6.40;;;19.10;72.20;;;;;;5010983;28;20993;-53
2022/12/24 00:50:06;;;;;;;5.20;4.90;;;19.10;72.00;;;;;;5010832;28;20452;-52
2022/12/24 00:52:33;;;;;;;5.60;5.20;;;19.00;72.00;;;;;;5015812;28;20476;-52
2022/12/24 00:55:01;;;;;;;5.40;5.10;;;19.00;72.00;;;;;;5030261;28;20510;-54
2022/12/24 00:57:28;;;;;;;6.13;5.83;;;19.10;72.00;;;;;;5011060;28;20536;-56
2022/12/24 00:59:55;;;;;;;5.77;5.53;;;19.00;72.00;;;;;;5014297;28;20537;-52
2022/12/24 01:02:22;;;;;;;5.90;5.47;;;19.00;72.20;;;;;;5013833;28;20544;-54
2022/12/24 01:07:33;;;;;;;5.70;5.60;;;19.10;72.70;;;;;;5014637;28;20480;-52
2022/12/24 01:10:01;;;;;;;6.07;5.67;;;19.00;72.60;;;;;;5014483;28;21028;-52
2022/12/24 01:12:28;;;;;;;5.60;5.40;;;19.00;72.30;;;;;;5014490;28;20497;-52
2022/12/24 01:14:55;;;;;;;5.77;5.37;;;19.00;72.40;;;;;;5014328;28;20453;-53
2022/12/24 01:17:22;;;;;;;5.30;5.20;;;19.00;72.40;;;;;;5014115;28;20464;-52
2022/12/24 01:19:49;;;;;;;5.27;4.97;;;19.00;72.40;;;;;;5013979;28;20964;-53
2022/12/24 01:22:16;;;;;;;5.60;5.20;;;19.00;72.60;;;;;;5014004;28;20552;-52
2022/12/24 01:24:43;;;;;;;5.63;5.30;;;19.00;72.30;;;;;;5014181;28;20476;-52
2022/12/24 01:27:11;;;;;;;5.70;5.60;;;19.00;72.40;;;;;;5013811;28;20450;-52
2022/12/24 01:29:38;;;;;;;5.30;5.10;;;19.00;72.40;;;;;;5013808;28;20568;-54
2022/12/24 01:32:05;;;;;;;6.30;6.00;;;19.00;72.30;;;;;;5013887;28;20477;-52
2022/12/24 01:34:32;;;;;;;4.80;4.70;;;19.00;72.40;;;;;;5013966;28;20818;-52
2022/12/24 01:36:59;;;;;;;6.10;5.83;;;19.00;72.60;;;;;;5012981;28;20452;-52
2022/12/24 01:39:26;;;;;;;5.80;5.60;;;19.00;72.40;;;;;;5013673;28;20552;-54
2022/12/24 01:44:41;;;;;;;5.60;5.50;;;19.00;72.60;;;;;;5013920;28;20799;-52
2022/12/24 01:47:12;;;;;;;6.03;5.63;;;19.00;72.50;;;;;;5013759;28;21007;-53
2022/12/24 01:49:44;;;;;;;5.80;5.60;;;19.00;72.70;;;;;;5013640;28;21001;-55
2022/12/24 01:52:14;;;;;;;5.23;5.03;;;18.90;72.40;;;;;;5014258;28;21008;-52
2022/12/24 01:54:45;;;;;;;5.50;5.30;;;19.00;72.60;;;;;;5013709;28;20460;-57
2022/12/24 01:57:18;;;;;;;5.60;5.30;;;18.90;72.70;;;;;;5013536;28;20457;-57
2022/12/24 01:59:50;;;;;;;4.97;4.77;;;18.90;72.30;;;;;;5013465;28;20460;-57
2022/12/24 02:02:17;;;;;;;5.83;5.70;;;18.90;72.40;;;;;;5013546;28;20469;-56
2022/12/24 02:04:50;;;;;;;5.90;5.60;;;18.90;72.60;;;;;;5013369;28;20452;-57
2022/12/24 02:07:19;;;;;;;6.00;5.57;;;18.90;72.70;;;;;;5013603;28;20955;-53
2022/12/24 02:09:47;;;;;;;6.30;5.87;;;18.90;72.50;;;;;;5012654;28;20509;-55
2022/12/24 02:12:14;;;;;;;5.20;5.10;;;18.90;72.30;;;;;;5013153;28;20470;-52
2022/12/24 02:14:41;;;;;;;5.77;5.47;;;18.90;72.30;;;;;;5013473;28;20454;-52
2022/12/24 02:17:17;;;;;;;5.80;5.50;;;18.90;72.40;;;;;;5013053;28;20457;-52
2022/12/24 02:20:14;;;;;;;6.13;5.83;;;18.90;72.30;;;;;;5012855;28;20448;-52
2022/12/24 02:22:59;;;;;;;5.83;5.63;;;18.90;72.40;;;;;;5011811;28;20469;-52
2022/12/24 02:25:41;;;;;;;5.13;5.03;;;18.90;72.30;;;;;;5013052;28;20446;-52
2022/12/24 02:28:20;;;;;;;5.67;5.47;;;18.90;72.50;;;;;;5012903;28;20938;-52
2022/12/24 02:30:54;;;;;;;5.40;5.20;;;18.90;72.60;;;;;;5012637;28;20450;-54
2022/12/24 02:33:28;;;;;;;7.70;7.07;;;18.90;72.90;;;;;;5012759;28;20475;-52
2022/12/24 02:36:01;;;;;;;5.10;4.90;;;18.90;73.00;;;;;;5012427;28;20446;-53
2022/12/24 02:38:33;;;;;;;5.80;5.40;;;18.90;73.00;;;;;;5013056;28;20525;-53
2022/12/24 02:41:05;;;;;;;5.53;5.33;;;18.90;74.00;;;;;;5012417;28;20450;-52
2022/12/24 02:43:36;;;;;;;5.30;5.00;;;18.90;73.10;;;;;;5012820;28;20548;-52
2022/12/24 02:46:08;;;;;;;5.50;5.10;;;18.90;73.00;;;;;;5012525;28;20442;-52
2022/12/24 02:48:38;;;;;;;4.73;4.60;;;18.90;72.90;;;;;;5012567;28;20985;-52
2022/12/24 02:51:08;;;;;;;5.20;5.00;;;18.90;72.70;;;;;;5012011;28;20541;-52
2022/12/24 02:53:36;;;;;;;4.80;4.60;;;18.90;72.80;;;;;;5012762;28;20460;-54
2022/12/24 02:56:28;;;;;;;5.57;5.33;;;18.90;72.70;;;;;;5012380;28;20448;-52
2022/12/24 02:59:21;;;;;;;4.80;4.70;;;18.90;72.50;;;;;;5012079;28;20446;-54
2022/12/24 03:01:57;;;;;;;5.40;5.10;;;18.90;72.60;;;;;;5012082;28;20461;-52
2022/12/24 03:04:39;;;;;;;4.70;4.60;;;18.80;72.60;;;;;;5012663;28;20438;-52
2022/12/24 03:07:13;;;;;;;4.70;4.57;;;18.80;72.60;;;;;;5012356;28;20445;-52
2022/12/24 03:09:52;;;;;;;7.73;7.23;;;18.80;72.70;;;;;;5012274;28;20551;-52
2022/12/24 03:12:24;;;;;;;5.20;5.00;;;18.80;72.70;;;;;;5012113;28;20465;-52
2022/12/24 03:14:51;;;;;;;5.50;5.17;;;18.80;73.00;;;;;;5012156;28;20457;-52
2022/12/24 03:17:20;;;;;;;4.90;4.80;;;18.80;73.00;;;;;;5011881;28;20446;-53
2022/12/24 03:19:48;;;;;;;6.20;5.80;;;18.80;72.90;;;;;;5012088;28;20449;-52
2022/12/24 03:22:18;;;;;;;4.90;4.80;;;18.80;73.00;;;;;;5011782;28;20557;-52
2022/12/24 03:24:44;;;;;;;5.50;5.17;;;18.80;72.70;;;;;;5012210;28;20470;-52
2022/12/24 03:27:13;;;;;;;4.80;4.70;;;18.80;72.70;;;;;;5011580;28;20516;-53
2022/12/24 03:29:40;;;;;;;4.70;4.60;;;18.80;72.70;;;;;;5011572;28;20842;-52
2022/12/24 03:32:07;;;;;;;5.37;5.10;;;18.80;72.90;;;;;;5011709;28;20900;-52
2022/12/24 03:34:35;;;;;;;4.70;4.60;;;18.80;72.80;;;;;;5012151;28;20814;-52
2022/12/24 03:37:02;;;;;;;7.50;7.20;;;18.80;72.90;;;;;;5011642;28;20541;-53
2022/12/24 03:39:29;;;;;;;5.30;5.20;;;18.80;72.80;;;;;;5011901;28;20442;-52
2022/12/24 03:41:56;;;;;;;5.30;5.07;;;18.80;72.80;;;;;;5011739;28;20558;-54
2022/12/24 03:44:23;;;;;;;5.20;4.90;;;18.80;72.90;;;;;;5011642;28;20579;-53
2022/12/24 03:46:50;;;;;;;5.03;4.80;;;18.80;72.80;;;;;;5011372;28;20452;-52
2022/12/24 03:49:16;;;;;;;5.20;4.90;;;18.80;72.90;;;;;;5011666;28;20485;-53
2022/12/24 03:51:45;;;;;;;5.23;5.03;;;18.80;72.70;;;;;;5011390;28;20838;-52
2022/12/24 03:54:11;;;;;;;5.07;4.97;;;18.80;72.80;;;;;;5011862;28;20446;-53
2022/12/24 03:56:38;;;;;;;4.83;4.67;;;18.80;72.80;;;;;;5011677;28;20461;-52
2022/12/24 03:59:05;;;;;;;5.50;5.30;;;18.80;72.80;;;;;;5011642;28;20443;-54
2022/12/24 04:01:32;;;;;;;5.83;5.53;;;18.80;72.90;;;;;;5010963;28;20993;-52
2022/12/24 04:03:59;;;;;;;5.47;5.17;;;18.80;72.80;;;;;;5011877;28;20544;-52
2022/12/24 04:06:25;;;;;;;5.40;5.10;;;18.80;72.90;;;;;;5011571;28;20541;-52
2022/12/24 04:08:54;;;;;;;4.87;4.77;;;18.80;72.80;;;;;;5011502;28;20568;-53
2022/12/24 04:11:20;;;;;;;5.00;4.80;;;18.70;72.90;;;;;;5011062;28;20537;-52
2022/12/24 04:13:47;;;;;;;4.97;4.87;;;18.80;72.80;;;;;;5011629;28;20869;-52
2022/12/24 04:16:16;;;;;;;4.73;4.63;;;18.80;72.70;;;;;;5011323;28;20450;-52
2022/12/24 04:18:43;;;;;;;4.80;4.70;;;18.80;72.80;;;;;;5011374;28;20442;-52
2022/12/24 04:21:11;;;;;;;5.83;5.73;;;18.80;72.80;;;;;;5010435;28;20450;-52
2022/12/24 04:23:40;;;;;;;5.03;4.93;;;18.80;72.90;;;;;;5009895;28;20448;-52
2022/12/24 04:26:11;;;;;;;5.23;4.90;;;18.70;72.80;;;;;;5011323;28;20450;-52
2022/12/24 04:28:39;;;;;;;5.50;5.27;;;18.80;72.80;;;;;;5011059;28;20568;-53
2022/12/24 04:31:08;;;;;;;5.07;4.90;;;18.80;73.00;;;;;;5028743;28;20812;-53
2022/12/24 04:33:35;;;;;;;6.00;5.70;;;18.80;73.00;;;;;;5020989;28;20472;-52
2022/12/24 04:36:03;;;;;;;4.73;4.63;;;18.80;72.90;;;;;;5014576;28;20449;-56
2022/12/24 04:38:30;;;;;;;4.87;4.70;;;18.80;72.90;;;;;;5014425;28;20442;-52
2022/12/24 04:41:00;;;;;;;4.97;4.70;;;18.80;73.10;;;;;;5014404;28;20452;-52
2022/12/24 04:43:29;;;;;;;4.80;4.67;;;18.70;73.00;;;;;;5015049;28;20466;-52
2022/12/24 04:45:56;;;;;;;4.50;4.40;;;18.70;72.90;;;;;;5014888;28;20938;-53
2022/12/24 04:48:23;;;;;;;6.90;6.60;;;18.70;73.00;;;;;;5014932;28;20445;-52
2022/12/24 04:50:50;;;;;;;5.23;5.00;;;18.80;73.30;;;;;;5014267;28;20900;-53
2022/12/24 04:53:17;;;;;;;4.63;4.53;;;18.80;73.40;;;;;;5013907;28;20565;-52
2022/12/24 04:55:45;;;;;;;4.83;4.73;;;18.70;73.30;;;;;;5014698;28;20441;-52
2022/12/24 04:58:13;;;;;;;4.87;4.77;;;18.70;73.20;;;;;;5014886;28;20816;-52
2022/12/24 05:00:42;;;;;;;5.40;5.20;;;18.80;73.40;;;;;;5014380;28;20466;-52
2022/12/24 05:03:09;;;;;;;6.07;5.70;;;18.70;73.20;;;;;;5014261;28;20557;-52
2022/12/24 05:05:36;;;;;;;4.67;4.57;;;18.70;73.30;;;;;;5014557;28;20450;-52
2022/12/24 05:08:02;;;;;;;5.17;4.97;;;18.70;73.30;;;;;;5014229;28;21004;-52
2022/12/24 05:10:29;;;;;;;5.37;5.17;;;18.70;73.40;;;;;;5014344;28;21008;-52
2022/12/24 05:12:56;;;;;;;5.07;4.90;;;18.70;73.30;;;;;;5014256;28;20472;-52
2022/12/24 05:15:23;;;;;;;5.03;4.90;;;18.70;73.20;;;;;;5014485;28;20964;-51
2022/12/24 05:17:52;;;;;;;4.57;4.47;;;18.70;73.20;;;;;;5014213;28;20454;-51
2022/12/24 05:20:18;;;;;;;5.30;5.10;;;18.70;73.40;;;;;;5013996;28;20529;-53
2022/12/24 05:28:18;;;;;;;5.17;4.97;;;18.70;73.40;;;;;;5014411;28;20425;-52
2022/12/24 05:30:45;;;;;;;5.30;5.10;;;18.70;73.40;;;;;;5013946;28;20482;-52
2022/12/24 05:33:13;;;;;;;5.50;5.30;;;18.70;73.70;;;;;;5014171;28;20806;-52
2022/12/24 05:35:40;;;;;;;5.40;5.20;;;18.70;73.80;;;;;;5014173;28;20452;-52
2022/12/24 05:38:07;;;;;;;7.20;6.70;;;18.70;73.60;;;;;;5023563;28;20532;-54
2022/12/24 05:40:34;;;;;;;5.60;5.40;;;18.70;73.70;;;;;;5033728;28;20445;-53
2022/12/24 05:43:01;;;;;;;5.13;4.93;;;18.70;73.70;;;;;;5014575;28;21160;-52
2022/12/24 05:45:28;;;;;;;5.27;5.10;;;18.70;73.70;;;;;;5013860;28;20446;-52
2022/12/24 05:47:55;;;;;;;4.93;4.70;;;18.70;73.70;;;;;;5013802;28;20453;-52
2022/12/24 05:50:23;;;;;;;5.13;5.03;;;18.70;73.60;;;;;;5013343;28;20478;-52
2022/12/24 05:52:50;;;;;;;4.80;4.70;;;18.70;73.70;;;;;;5013443;28;20914;-52
2022/12/24 05:55:17;;;;;;;5.10;4.83;;;18.70;73.70;;;;;;5013551;28;20452;-53
2022/12/24 05:57:44;;;;;;;5.13;5.03;;;18.70;73.70;;;;;;5013405;28;20442;-53
2022/12/24 06:00:11;;;;;;;5.33;5.23;;;18.70;73.90;;;;;;5013022;28;20531;-52
2022/12/24 06:02:38;;;;;;;5.97;5.87;;;18.70;73.80;;;;;;5013104;28;20468;-54
2022/12/24 06:05:05;;;;;;;6.00;5.90;;;18.70;73.90;;;;;;5013360;28;20544;-52
2022/12/24 06:07:34;;;;;;;6.17;5.97;;;18.70;73.90;;;;;;5013334;28;20481;-55
2022/12/24 06:10:01;;;;;;;5.40;5.20;;;18.70;74.00;;;;;;5013216;28;20488;-52
2022/12/24 06:12:27;;;;;;;4.77;4.67;;;18.70;74.10;;;;;;5013092;28;20552;-51
2022/12/24 06:14:54;;;;;;;5.00;4.90;;;18.70;74.00;;;;;;5013234;28;20451;-54
2022/12/24 06:17:21;;;;;;;5.43;5.13;;;18.70;73.90;;;;;;5012973;28;20549;-53
2022/12/24 06:19:48;;;;;;;5.60;5.40;;;18.70;74.00;;;;;;5012653;28;20446;-52
2022/12/24 06:22:15;;;;;;;5.87;5.67;;;18.70;74.00;;;;;;5011523;28;20544;-52
2022/12/24 06:24:43;;;;;;;5.10;5.00;;;18.70;74.00;;;;;;5013078;28;20450;-52
2022/12/24 06:27:10;;;;;;;4.53;4.43;;;18.70;74.10;;;;;;5012569;28;20529;-53
2022/12/24 06:29:36;;;;;;;5.40;5.20;;;18.70;74.10;;;;;;5012243;28;20486;-52
2022/12/24 06:32:03;;;;;;;5.63;5.40;;;18.70;74.30;;;;;;5012330;28;20552;-52
2022/12/24 06:34:30;;;;;;;5.97;5.67;;;18.70;74.10;;;;;;5012824;28;20820;-51
2022/12/24 06:36:57;;;;;;;5.40;5.20;;;18.70;74.20;;;;;;5012744;28;20442;-54
2022/12/24 06:39:24;;;;;;;6.07;5.67;;;18.70;74.10;;;;;;5012801;28;20529;-51
2022/12/24 06:41:52;;;;;;;5.40;5.30;;;18.70;74.40;;;;;;5012249;28;20549;-53
2022/12/24 06:44:19;;;;;;;5.80;5.50;;;18.70;74.40;;;;;;5012719;28;20457;-54
2022/12/24 06:46:46;;;;;;;5.80;5.60;;;18.70;74.20;;;;;;5012591;28;20472;-52
2022/12/24 06:49:13;;;;;;;6.10;5.80;;;18.60;74.20;;;;;;5012644;28;20442;-52
2022/12/24 06:51:40;;;;;;;5.40;5.30;;;18.60;74.20;;;;;;5012265;28;20909;-51
2022/12/24 06:54:07;;;;;;;5.37;5.07;;;18.70;74.50;;;;;;5012495;28;20450;-52
2022/12/24 06:56:34;;;;;;;5.20;5.10;;;18.70;74.60;;;;;;5011841;28;20442;-51
2022/12/24 06:59:02;;;;;;;5.53;5.30;;;18.70;74.40;;;;;;5012359;28;20868;-51
2022/12/24 07:01:29;;;;;;;5.33;5.13;;;18.60;74.20;;;;;;5012191;28;20480;-52
2022/12/24 07:03:56;;;;;;;5.50;5.40;;;18.60;74.40;;;;;;5012450;28;20529;-52
2022/12/24 07:06:26;;;;;;;5.53;5.40;;;18.70;74.50;;;;;;5012373;28;20851;-53
2022/12/24 07:08:53;;;;;;;5.20;5.00;;;18.60;74.40;;;;;;5012307;28;20534;-53
2022/12/24 07:11:20;;;;;;;6.20;5.90;;;18.60;74.50;;;;;;5011757;28;20482;-53
2022/12/24 07:13:48;;;;;;;5.50;5.40;;;18.70;74.70;;;;;;5012279;28;20446;-52
2022/12/24 07:16:16;;;;;;;5.20;5.10;;;18.60;74.50;;;;;;5012073;28;20454;-53
2022/12/24 07:18:43;;;;;;;5.27;5.17;;;18.60;74.60;;;;;;5012290;28;20955;-52
2022/12/24 07:21:10;;;;;;;5.83;5.63;;;18.70;74.70;;;;;;5011788;28;20439;-52
2022/12/24 07:23:37;;;;;;;6.33;6.10;;;18.60;74.50;;;;;;5011975;28;20446;-52
2022/12/24 07:26:05;;;;;;;5.80;5.70;;;18.70;74.90;;;;;;5008638;28;20548;-53
2022/12/24 07:28:32;;;;;;;6.47;6.13;;;18.60;74.70;;;;;;5010462;28;20964;-53
2022/12/24 07:31:01;;;;;;;6.47;6.10;;;18.60;74.80;;;;;;4992255;28;21092;-52
2022/12/24 07:33:30;;;;;;;5.90;5.73;;;18.60;74.90;;;;;;4998537;28;20470;-52
2022/12/24 07:36:01;;;;;;;6.70;6.50;;;18.60;75.10;;;;;;5011679;28;20500;-54
2022/12/24 07:38:29;;;;;;;6.10;5.90;;;18.60;74.90;;;;;;5011990;28;20446;-52
2022/12/24 07:40:56;;;;;;;5.20;5.10;;;18.60;75.30;;;;;;5011632;28;20446;-51
2022/12/24 07:43:23;;;;;;;5.40;5.30;;;18.70;75.40;;;;;;5009759;28;20466;-53
2022/12/24 07:45:50;;;;;;;5.80;5.40;;;18.60;75.40;;;;;;5011792;28;20446;-52
2022/12/24 07:48:17;;;;;;;6.23;5.87;;;18.60;75.40;;;;;;5011649;28;20469;-53
2022/12/24 07:50:45;;;;;;;6.30;6.00;;;18.60;75.80;;;;;;5011327;28;20565;-52
2022/12/24 07:53:12;;;;;;;5.67;5.50;;;18.60;75.60;;;;;;5012682;28;20474;-53
2022/12/24 07:55:39;;;;;;;5.70;5.50;;;18.70;75.80;;;;;;5012952;28;20452;-55
2022/12/24 07:58:05;;;;;;;6.23;6.03;;;18.60;75.60;;;;;;5012012;28;20453;-54
2022/12/24 08:00:32;;;;;;;5.83;5.63;;;18.70;76.00;;;;;;5012196;28;20439;-52
2022/12/24 08:02:59;;;;;;;5.87;5.57;;;18.70;75.90;;;;;;5012422;28;20557;-54
2022/12/24 08:05:27;;;;;;;5.80;5.60;;;18.60;75.80;;;;;;5012637;28;20453;-53
2022/12/24 08:07:55;;;;;;;5.80;5.60;;;18.60;76.00;;;;;;5013547;28;20452;-53
2022/12/24 08:10:22;;;;;;;5.30;5.20;;;18.60;76.00;;;;;;5016838;28;20568;-54
2022/12/24 08:12:49;;;;;;;5.83;5.73;;;18.60;76.00;;;;;;5016555;28;20472;-53
2022/12/24 08:15:16;;;;;;;5.80;5.70;;;18.60;75.90;;;;;;5016851;28;20821;-53
2022/12/24 08:17:44;;;;;;;6.10;5.97;;;18.60;75.90;;;;;;5016532;28;20450;-54
2022/12/24 08:20:11;;;;;;;6.53;6.13;;;18.60;76.10;;;;;;5016877;28;20445;-53
2022/12/24 08:22:38;;;;;;;6.30;6.13;;;18.60;76.10;;;;;;5016670;28;20473;-52
2022/12/24 08:25:07;;;;;;;5.83;5.73;;;18.60;76.20;;;;;;5016198;28;20540;-53
2022/12/24 08:27:34;;;;;;;6.73;6.27;;;18.60;76.10;;;;;;5017458;28;20531;-55
2022/12/24 08:30:01;;;;;;;6.27;6.17;;;18.60;76.10;;;;;;5014921;28;20474;-53
2022/12/24 08:32:28;;;;;;;6.60;6.30;;;18.60;76.00;;;;;;5015189;28;20496;-55
2022/12/24 08:34:55;;;;;;;5.97;5.77;;;18.60;76.00;;;;;;5015682;28;20452;-52
2022/12/24 08:37:22;;;;;;;6.47;6.27;;;18.60;76.70;;;;;;5015251;28;20984;-53
2022/12/24 08:39:49;;;;;;;6.63;6.30;;;18.60;76.10;;;;;;5014905;28;20544;-52
2022/12/24 08:42:17;;;;;;;6.90;6.40;;;18.60;76.20;;;;;;5015324;28;20814;-52
2022/12/24 08:44:45;;;;;;;7.07;6.63;;;18.60;76.20;;;;;;5015647;28;20448;-53
2022/12/24 08:47:12;;;;;;;6.40;6.20;;;18.60;76.30;;;;;;5015200;28;20441;-53
2022/12/24 08:49:39;;;;;;;6.60;6.27;;;18.60;76.70;;;;;;5015437;28;20528;-53
2022/12/24 08:52:06;;;;;;;6.90;6.70;;;18.60;76.50;;;;;;5015247;28;20478;-53
2022/12/24 08:54:33;;;;;;;5.63;5.53;;;18.60;76.50;;;;;;5015250;28;20454;-55
2022/12/24 08:57:00;;;;;;;6.60;6.20;;;18.60;76.80;;;;;;5015161;28;20450;-53
2022/12/24 08:59:28;;;;;;;5.90;5.70;;;18.60;76.90;;;;;;5014865;28;21013;-53
2022/12/24 09:01:55;;;;;;;5.60;5.50;;;18.60;76.70;;;;;;5014726;28;20474;-54
2022/12/24 09:04:21;;;;;;;6.53;6.33;;;18.60;76.80;;;;;;5015365;28;20456;-54
2022/12/24 09:06:48;;;;;;;6.03;5.93;;;18.60;77.00;;;;;;5015066;28;20536;-56
2022/12/24 09:09:15;;;;;;;6.30;6.20;;;18.60;77.00;;;;;;5014932;28;20544;-52
2022/12/24 09:11:42;;;;;;;6.00;5.80;;;18.60;77.00;;;;;;5014991;28;21025;-53
2022/12/24 09:14:09;;;;;;;6.60;6.40;;;18.60;76.90;;;;;;5014923;28;20446;-54
2022/12/24 09:16:37;;;;;;;5.50;5.40;;;18.60;77.30;;;;;;5015156;28;20541;-54
2022/12/24 09:19:04;;;;;;;6.30;6.00;;;18.60;77.00;;;;;;5015002;28;20818;-52
2022/12/24 09:21:31;;;;;;;6.07;5.87;;;18.60;77.00;;;;;;5016013;28;20561;-53
2022/12/24 09:24:00;;;;;;;6.87;6.67;;;18.60;77.20;;;;;;5015908;28;20465;-52
2022/12/24 09:26:30;;;;;;;7.20;6.80;;;18.60;77.10;;;;;;5015574;28;20485;-52
2022/12/24 09:28:58;;;;;;;7.30;6.97;;;18.60;77.10;;;;;;5015314;28;20454;-54
2022/12/24 09:31:25;;;;;;;6.53;6.43;;;18.60;77.30;;;;;;5015270;28;20488;-53
2022/12/24 09:33:53;;;;;;;6.87;6.67;;;18.60;77.10;;;;;;5014827;28;20480;-52
2022/12/24 09:36:20;;;;;;;6.67;6.37;;;18.60;77.10;;;;;;5014710;28;20489;-53
2022/12/24 09:38:48;;;;;;;6.80;6.60;;;18.60;77.30;;;;;;5015443;28;20450;-53
2022/12/24 09:41:25;;;;;;;6.20;6.03;;;18.60;77.50;;;;;;5015463;28;20467;-55
2022/12/24 09:43:57;;;;;;;6.13;6.03;;;18.60;77.50;;;;;;5016367;28;20532;-54
2022/12/24 09:46:30;;;;;;;6.30;6.00;;;18.60;77.40;;;;;;5016231;28;20446;-53
2022/12/24 09:49:04;;;;;;;6.53;6.33;;;18.60;77.10;;;;;;5015918;28;20454;-54
2022/12/24 09:51:36;;;;;;;6.70;6.50;;;18.60;77.20;;;;;;5015517;28;20581;-53
2022/12/24 09:54:05;;;;;;;6.53;6.33;;;18.60;77.30;;;;;;5016063;28;20541;-52
2022/12/24 09:56:38;;;;;;;6.23;6.13;;;18.60;77.20;;;;;;5015626;28;20451;-54
2022/12/24 09:59:12;;;;;;;7.67;7.27;;;18.60;77.20;;;;;;5014996;28;20945;-52
2022/12/24 10:01:41;;;;;;;6.13;6.03;;;18.60;77.20;;;;;;5014960;28;20459;-52
2022/12/24 10:04:16;;;;;;;6.90;6.67;;;18.60;77.30;;;;;;5015160;28;20453;-52
2022/12/24 10:06:52;;;;;;;6.20;6.10;;;18.60;77.50;;;;;;5013724;28;21107;-52
2022/12/24 10:09:29;;;;;;;6.17;5.97;;;18.60;77.50;;;;;;5006645;28;20469;-55
2022/12/24 10:12:03;;;;;;;6.70;6.40;;;18.60;77.80;;;;;;5015071;28;20992;-53
2022/12/24 10:14:48;;;;;;;6.57;6.37;;;18.60;77.80;;;;;;5015759;28;20537;-54
2022/12/24 10:17:30;;;;;;;6.37;6.20;;;18.60;77.70;;;;;;5015870;28;20448;-54
2022/12/24 10:20:08;;;;;;;6.10;5.90;;;18.60;78.60;;;;;;5015144;28;20938;-56
2022/12/24 10:22:46;;;;;;;6.67;6.37;;;18.60;78.20;;;;;;5014516;28;20679;-54
2022/12/24 10:25:19;;;;;;;6.50;6.20;;;18.60;78.30;;;;;;5014688;28;20884;-56
2022/12/24 10:27:46;;;;;;;7.20;6.90;;;18.60;78.60;;;;;;5015172;28;20442;-57
2022/12/24 10:30:16;;;;;;;6.70;6.50;;;18.60;78.60;;;;;;5014717;28;20521;-55
2022/12/24 10:32:43;;;;;;;6.50;6.37;;;18.60;78.60;;;;;;5013768;28;20548;-55
2022/12/24 10:35:21;;;;;;;6.80;6.60;;;18.60;78.60;;;;;;5014923;28;20447;-54
2022/12/24 10:37:50;;;;;;;6.60;6.40;;;18.60;78.60;;;;;;5014566;28;20529;-52
2022/12/24 10:40:25;;;;;;;6.63;6.43;;;18.60;79.30;;;;;;5014478;28;20452;-52
2022/12/24 10:42:52;;;;;;;6.27;6.07;;;18.60;78.60;;;;;;4995002;28;20982;-52
2022/12/24 10:45:22;;;;;;;6.17;5.97;;;18.60;78.40;;;;;;4995054;28;20451;-52
2022/12/24 10:47:54;;;;;;;6.93;6.70;;;18.60;78.40;;;;;;4994927;28;20474;-54
2022/12/24 10:50:32;;;;;;;6.90;6.70;;;18.60;78.40;;;;;;5005668;28;20949;-54
2022/12/24 10:53:07;;;;;;;6.87;6.47;;;18.60;78.40;;;;;;5014099;28;20838;-53
2022/12/24 10:55:34;;;;;;;7.73;6.90;;;18.60;78.30;;;;;;5013808;28;20524;-53
2022/12/24 10:58:03;;;;;;;6.77;6.37;;;18.60;78.30;;;;;;5013887;28;20448;-53
2022/12/24 11:00:31;;;;;;;6.70;6.50;;;18.60;78.20;;;;;;5013733;28;20450;-55
2022/12/24 11:03:22;;;;;;;7.30;7.00;;;18.60;78.20;;;;;;5013683;28;20473;-56
2022/12/24 11:06:02;;;;;;;6.40;6.30;;;18.60;78.00;;;;;;5013580;28;20442;-52
2022/12/24 11:08:29;;;;;;;7.13;6.63;;;18.60;78.00;;;;;;5013609;28;20454;-54
2022/12/24 11:10:58;;;;;;;7.90;7.50;;;18.60;77.90;;;;;;5013220;28;20932;-52
2022/12/24 11:13:27;;;;;;;6.63;6.43;;;18.60;78.10;;;;;;5012708;28;20466;-53
2022/12/24 11:16:01;;;;;;;6.80;6.40;;;18.60;78.00;;;;;;5013154;28;20702;-57
2022/12/24 11:18:29;;;;;;;6.13;5.93;;;18.60;78.00;;;;;;5013244;28;20454;-55
2022/12/24 11:20:58;;;;;;;6.50;6.30;;;18.60;78.10;;;;;;5012357;28;20529;-54
2022/12/24 11:23:28;;;;;;;6.60;6.40;;;18.60;78.10;;;;;;5013297;28;20556;-55
2022/12/24 11:25:56;;;;;;;6.70;6.40;;;18.70;78.30;;;;;;5012783;28;20442;-55
2022/12/24 11:28:26;;;;;;;6.60;6.27;;;18.70;78.30;;;;;;5012466;28;20520;-53
2022/12/24 11:31:02;;;;;;;6.20;6.00;;;18.60;78.30;;;;;;5012553;28;20812;-53
2022/12/24 11:33:29;;;;;;;6.50;6.30;;;18.70;78.30;;;;;;5012390;28;20828;-52
2022/12/24 11:36:04;;;;;;;6.63;6.33;;;18.70;78.50;;;;;;5013325;28;20450;-52
2022/12/24 11:38:35;;;;;;;6.83;6.63;;;18.70;78.70;;;;;;4993217;28;20450;-53
2022/12/24 11:41:07;;;;;;;7.00;6.80;;;18.70;79.10;;;;;;5008680;28;20474;-55
2022/12/24 11:43:46;;;;;;;6.73;6.50;;;18.70;82.40;;;;;;4992360;28;20453;-56
2022/12/24 11:46:20;;;;;;;7.63;7.33;;;18.80;84.80;;;;;;5005288;28;20473;-52
2022/12/24 11:48:48;;;;;;;8.60;7.83;;;18.90;84.80;;;;;;5012047;28;20521;-51
2022/12/24 11:51:24;;;;;;;6.67;6.47;;;19.00;83.40;;;;;;5011901;28;20482;-51
2022/12/24 11:54:00;;;;;;;7.00;6.60;;;19.10;82.00;;;;;;5012533;28;20450;-51
2022/12/24 11:56:36;;;;;;;6.90;6.70;;;19.20;81.00;;;;;;5011992;28;20460;-50
2022/12/24 11:59:11;;;;;;;8.47;7.90;;;19.20;81.00;;;;;;5012032;28;20489;-51
2022/12/24 12:01:48;;;;;;;11.77;8.97;;;19.30;92.40;;;;;;5011635;28;20548;-51
2022/12/24 12:04:19;;;;;;;15.87;9.37;;;19.40;98.60;;;;;;5011853;28;20456;-53
2022/12/24 12:06:49;;;;;;;31.03;12.97;;;19.50;99.90;;;;;;5011747;28;20457;-52
2022/12/24 12:09:21;;;;;;;20.60;11.07;;;19.60;99.90;;;;;;5011763;28;20445;-54
2022/12/24 12:11:53;;;;;;;23.90;9.60;;;19.60;99.90;;;;;;5012318;28;20485;-52
2022/12/24 12:14:25;;;;;;;20.47;10.43;;;19.70;99.90;;;;;;5013383;28;20825;-54
2022/12/24 12:17:03;;;;;;;22.00;11.00;;;19.80;99.90;;;;;;4997229;28;20446;-53
2022/12/24 12:19:39;;;;;;;17.67;9.53;;;19.90;99.90;;;;;;5011529;28;20947;-54
2022/12/24 12:22:26;;;;;;;16.80;10.60;;;19.90;99.90;;;;;;5011025;28;20541;-55
2022/12/24 12:24:56;;;;;;;13.23;9.60;;;20.00;99.90;;;;;;4998985;28;20446;-54
2022/12/24 12:27:31;;;;;;;11.30;9.30;;;20.00;99.90;;;;;;5011467;28;20557;-56
2022/12/24 12:30:02;;;;;;;16.30;9.20;;;20.00;99.90;;;;;;5011071;28;20445;-54
2022/12/24 12:32:37;;;;;;;11.47;9.53;;;20.00;99.90;;;;;;5010873;28;20485;-56
2022/12/24 12:35:16;;;;;;;10.80;9.67;;;20.00;99.90;;;;;;4995239;28;20456;-55
2022/12/24 12:37:48;;;;;;;10.13;7.97;;;19.90;99.90;;;;;;4992567;28;20450;-54
2022/12/24 12:40:17;;;;;;;11.83;8.27;;;20.00;99.90;;;;;;5011102;28;20464;-55
2022/12/24 12:42:52;;;;;;;10.50;8.70;;;20.00;99.90;;;;;;5010728;28;20580;-52
2022/12/24 12:45:43;;;;;;;12.73;8.87;;;20.00;99.80;;;;;;5011476;28;20967;-55
2022/12/24 12:48:31;;;;;;;10.00;8.47;;;20.00;98.90;;;;;;5009163;28;20473;-56
2022/12/24 12:51:03;;;;;;;9.97;8.77;;;20.00;98.30;;;;;;5010615;28;20525;-57
2022/12/24 12:53:41;;;;;;;8.80;8.23;;;19.90;98.10;;;;;;5011048;28;20476;-56
2022/12/24 12:56:20;;;;;;;9.37;8.20;;;19.90;98.20;;;;;;5014514;28;20452;-56
2022/12/24 12:58:52;;;;;;;9.17;7.80;;;19.90;98.00;;;;;;5014776;28;20859;-58
2022/12/24 13:01:23;;;;;;;8.97;8.30;;;19.90;98.30;;;;;;5014431;28;20533;-54
2022/12/24 13:04:24;;;;;;;8.40;7.73;;;20.00;98.60;;;;;;5013473;28;20535;-55
2022/12/24 13:07:07;;;;;;;8.70;7.90;;;20.00;98.00;;;;;;5013787;28;20446;-56
2022/12/24 13:09:57;;;;;;;8.70;8.10;;;20.00;97.90;;;;;;5014375;28;20450;-58